Latest Coastal Weather Observations for Cairns

IDQ60701

Issued at 6:05 pm EST Sunday 21 September 2014 (issued every 10 minutes, with the page automatically refreshed every 10 minutes)

About coastal observations | Map of coastal stations | Coastal observations for QLD | Marine services | Other Formats
Station Details ID: 031011 Name: CAIRNS AERO Lat: -16.87 Lon: 145.75 Height: 2.22 m
Data from the previous 72 hours. | See also: Recent months at Cairns
Date/Time
EST
Temp

°C
Wind Pressure Rain
since 9am
mm
Weather Cloud Vis
km
Sea
Height
m
Swell
Dir
 
Speed
knots
Gust
knots
hPa Trend Height
m
Period
s
Dir
21/06:00pm 24.3 SSE 12 17 1016.1 - 0.0 - Mostly clear 10 - - - -
21/05:30pm 24.9 SE 13 17 1015.9 - 0.0 - Mostly clear 10 - - - -
21/05:00pm 25.9 SE 14 18 1015.7 - 0.0 - Mostly clear 10 - - - -
21/04:30pm 26.4 ESE 13 18 1015.4 - 0.0 - Mostly clear 10 - - - -
21/04:00pm 27.2 SE 11 13 1015.4 - 0.0 - Mostly clear 10 - - - -
21/03:30pm 26.9 ESE 11 16 1015.3 - 0.0 - Mostly clear 10 - - - -
21/03:00pm 28.1 E 12 16 1015.2 R 0.0 Fine Mostly cloudy 30 - - - -
21/02:30pm 27.8 E 10 15 1015.8 - 0.0 - Mostly clear 10 - - - -
21/02:00pm 27.8 ESE 12 16 1015.9 - 0.0 - Mostly clear 10 - - - -
21/01:30pm 28.6 E 13 17 1016.1 - 0.0 - Mostly clear 10 - - - -
21/01:00pm 28.4 E 12 17 1016.5 - 0.0 - Mostly clear 10 - - - -
21/12:30pm 27.8 ESE 11 15 1016.9 - 0.0 - Mostly clear 10 - - - -
21/12:00pm 28.3 E 9 14 1017.1 F 0.0 Fine Mostly cloudy 30 - - - -
21/11:30am 27.5 SE 9 15 1017.8 - 0.0 - Mostly clear 10 - - - -
21/11:00am 27.8 SE 11 16 1018.3 - 0.0 - Mostly clear 10 - - - -
21/10:30am 27.1 SSE 11 16 1018.6 - 0.0 - Mostly clear 10 - - - -
21/10:00am 27.8 SSE 11 17 1018.9 - 0.0 - Mostly clear 10 - - - -
21/09:30am 27.1 SSE 10 15 1018.9 - 0.0 - Mostly clear 10 - - - -
21/09:00am 26.2 S 10 14 1018.8 R 0.0 Fine Mostly cloudy 30 - - - -
21/08:30am 24.3 SSE 11 16 1018.5 - 0.0 - Mostly clear 10 - - - -
21/08:00am 23.8 S 9 15 1018.1 - 0.0 - Mostly clear 10 - - - -
21/07:30am 22.7 SSE 8 13 1017.7 - 0.0 - Mostly clear 10 - - - -
21/07:00am 20.4 SE 11 14 1017.2 - 0.0 - Mostly clear 10 - - - -
21/06:30am 21.7 S 9 14 1016.6 - 0.0 - Mostly clear 10 - - - -
21/06:00am 21.6 S 9 15 1016.3 R 0.0 Fine Cloudy 30 - - - -
21/05:30am 19.3 SE 8 10 1016.2 - 0.0 - - 10 - - - -
21/05:00am 19.4 SE 8 10 1015.9 - 0.0 - Mostly clear 10 - - - -
21/04:30am 19.4 SE 9 10 1015.6 - 0.0 - - 10 - - - -
21/04:00am 19.7 SE 9 12 1015.4 - 0.0 - - 10 - - - -
21/03:30am 21.2 SE 9 12 1015.3 - 0.0 - - 10 - - - -
21/03:00am 20.0 SE 11 13 1015.4 - 0.0 - - 10 - - - -
21/02:30am 19.3 SE 13 15 1015.8 - 0.0 - - 10 - - - -
21/02:00am 19.5 SE 12 15 1015.9 - 0.0 - - 10 - - - -
21/01:30am 21.7 S 6 9 1016.1 - 0.0 - - 10 - - - -
21/01:00am 20.1 SSE 5 6 1016.8 - 0.0 - - 10 - - - -
21/12:30am 17.9 CALM 0 0 1017.1 - 0.0 - - 10 - - - -
21/12:00am 18.8 WNW 0 0 1017.1 - 0.0 - - 10 - - - -
 
Date/Time
EST
Temp

°C
Wind Pressure Rain
since 9am
mm
Weather Cloud Vis
km
Sea
Height
m
Swell
Dir
 
Speed
knots
Gust
knots
hPa Trend Height
m
Period
s
Dir
20/11:30pm 21.2 SSW 3 6 1017.3 - 0.0 - - 10 - - - -
20/11:00pm 21.3 SE 6 7 1017.4 - 0.0 - - 10 - - - -
20/10:30pm 21.4 ESE 6 7 1017.4 - 0.0 - - 10 - - - -
20/10:00pm 21.7 SSE 5 8 1017.2 - 0.0 - - 10 - - - -
20/09:30pm 21.6 SSE 3 7 1017.2 - 0.0 - - 10 - - - -
20/09:00pm 21.8 S 4 6 1017.1 - 0.0 - - 10 - - - -
20/08:30pm 20.7 SSE 1 4 1017.1 - 0.0 - - 10 - - - -
20/08:00pm 20.3 SSE 1 4 1016.8 - 0.0 - - 10 - - - -
20/07:30pm 20.7 WSW 2 4 1016.6 - 0.0 - - 10 - - - -
20/07:00pm 21.8 SSE 4 5 1016.1 - 0.0 - - 10 - - - -
20/06:30pm 24.0 E 7 9 1015.6 - 0.0 - - 10 - - - -
20/06:00pm 25.0 E 8 10 1014.9 - 0.0 - - 10 - - - -
20/05:30pm 25.4 ENE 8 11 1014.7 - 0.0 - - 10 - - - -
20/05:00pm 26.5 E 9 13 1014.3 - 0.0 - - 10 - - - -
20/04:30pm 26.7 E 11 16 1013.9 - 0.0 - - 10 - - - -
20/04:00pm 27.8 E 12 16 1013.3 - 0.0 - - 10 - - - -
20/03:30pm 28.5 E 14 17 1013.3 - 0.0 - - 10 - - - -
20/03:00pm 28.2 E 14 18 1013.2 F 0.0 Fine Mostly cloudy 30 - - - -
20/02:30pm 29.7 E 14 18 1013.6 - 0.0 - - 10 - - - -
20/02:00pm 29.5 E 12 17 1013.9 - 0.0 - - 10 - - - -
20/01:30pm 29.9 E 12 14 1014.4 - 0.0 - - 10 - - - -
20/01:00pm 29.1 NE 11 13 1014.7 - 0.0 - - 10 - - - -
20/12:30pm 29.2 NE 11 14 1015.4 - 0.0 - - 10 - - - -
20/12:00pm 28.6 ENE 8 12 1015.9 - 0.0 - - 10 - - - -
20/11:30am 27.7 SE 5 14 1016.5 - 0.0 - Mostly clear 10 - - - -
20/11:00am 27.6 SE 9 12 1017.3 - 0.0 - Mostly clear 10 - - - -
20/10:30am 27.2 S 9 16 1017.7 - 0.0 - Mostly clear 10 - - - -
20/10:00am 25.9 S 7 12 1018.1 - 0.0 - Mostly clear 10 - - - -
20/09:30am 25.3 SSE 8 11 1018.4 - 0.0 - Mostly clear 10 - - - -
20/09:00am 25.0 S 7 10 1018.3 R 0.0 Fine Mostly clear 30 - - - -
20/08:30am 23.9 SE 8 10 1018.4 - 0.0 - Mostly clear 10 - - - -
20/08:00am 21.3 SE 9 10 1018.2 - 0.0 - Mostly clear 10 - - - -
20/07:30am 20.1 SE 8 10 1017.7 - 0.0 - Mostly clear 10 - - - -
20/07:00am 18.9 SE 7 9 1017.2 - 0.0 - Mostly clear 10 - - - -
20/06:30am 18.3 SE 11 13 1016.7 - 0.0 - Mostly clear 10 - - - -
20/06:00am 17.9 SE 13 15 1016.3 - 0.0 - Mostly clear 10 - - - -
20/05:30am 17.8 SE 9 11 1016.1 - 0.0 - Mostly clear 10 - - - -
20/05:00am 18.4 SSE 9 13 1016.0 - 0.0 - Mostly clear 10 - - - -
20/04:30am 18.5 SE 10 11 1015.9 - 0.0 - Mostly clear 10 - - - -
20/04:00am 19.3 SSE 11 13 1016.0 - 0.0 - Mostly clear 10 - - - -
20/03:30am 19.0 SSE 8 10 1016.0 - 0.0 - Mostly clear 10 - - - -
20/03:00am 19.2 SSE 9 12 1016.0 - 0.0 - Mostly clear 10 - - - -
20/02:30am 18.9 SE 8 9 1016.3 - 0.0 - Mostly clear 10 - - - -
20/02:00am 18.1 CALM 0 3 1016.4 - 0.0 - Mostly clear 10 - - - -
20/01:30am 18.7 CALM 0 0 1017.0 - 0.0 - Mostly clear 10 - - - -
20/01:00am 19.6 S 4 7 1017.3 - 0.0 - Mostly clear 10 - - - -
20/12:30am 19.9 SE 8 10 1017.6 - 0.0 - Mostly clear 10 - - - -
20/12:00am 19.9 SE 7 9 1017.6 - 0.0 - Cloudy 10 - - - -
 
Date/Time
EST
Temp

°C
Wind Pressure Rain
since 9am
mm
Weather Cloud Vis
km
Sea
Height
m
Swell
Dir
 
Speed
knots
Gust
knots
hPa Trend Height
m
Period
s
Dir
19/11:30pm 18.2 NW 1 4 1018.0 - 0.0 - Mostly clear 10 - - - -
19/11:00pm 18.1 WNW 1 3 1018.1 - 0.0 - Mostly clear 10 - - - -
19/10:30pm 19.1 CALM 0 0 1018.2 - 0.0 - Mostly clear 10 - - - -
19/10:00pm 20.6 SSE 4 5 1018.1 - 0.0 - Mostly clear 10 - - - -
19/09:30pm 20.9 SE 6 7 1018.1 - 0.0 - Mostly clear 10 - - - -
19/09:00pm 21.5 SSE 5 7 1017.7 - 0.0 - Mostly clear 10 - - - -
19/08:30pm 21.4 S 5 8 1017.7 - 0.0 - Mostly clear 10 - - - -
19/08:00pm 21.3 S 4 6 1017.5 - 0.0 - Mostly clear 10 - - - -
19/07:30pm 21.8 SSE 4 5 1017.1 - 0.0 - Mostly clear 10 - - - -
19/07:00pm 22.9 S 5 8 1016.5 - 0.0 - Mostly clear 10 - - - -
19/06:30pm 23.2 S 7 9 1015.8 - 0.0 - Mostly clear 10 - - - -
19/06:00pm 24.2 S 6 9 1015.1 - 0.0 - Mostly clear 10 - - - -
19/05:30pm 25.6 S 5 10 1014.8 - 0.0 - Mostly clear 10 - - - -
19/05:00pm 27.3 S 7 9 1014.5 - 0.0 - Mostly clear 10 - - - -
19/04:30pm 27.7 ENE 10 12 1014.3 - 0.0 - Mostly clear 10 - - - -
19/04:00pm 28.5 ENE 11 14 1014.3 - 0.0 - Mostly clear 10 - - - -
19/03:30pm 28.7 NE 11 15 1014.2 - 0.0 - Mostly clear 10 - - - -
19/03:00pm 29.2 NE 8 13 1014.5 F 0.0 Fine Partly cloudy 25 - - - -
19/02:30pm 28.5 NE 11 14 1015.1 - 0.0 - Mostly clear 10 - - - -
19/02:00pm 28.3 ENE 11 16 1015.4 - 0.0 - Mostly clear 10 - - - -
19/01:30pm 28.9 NE 11 15 1015.7 - 0.0 - Mostly clear 10 - - - -
19/01:00pm 28.2 ENE 10 14 1016.0 - 0.0 - Mostly clear 10 - - - -
19/12:30pm 29.0 ESE 8 12 1016.5 - 0.0 - Mostly clear 10 - - - -
19/12:00pm 27.7 SE 9 14 1016.9 - 0.0 - Mostly clear 10 - - - -
19/11:30am 28.0 ESE 9 13 1017.5 - 0.0 - Mostly clear 10 - - - -
19/11:00am 27.6 SE 10 15 1018.1 - 0.0 - Mostly clear 10 - - - -
19/10:30am 26.4 SSE 10 17 1018.7 - 0.0 - Mostly clear 10 - - - -
19/10:00am 26.5 SSE 11 16 1019.1 - 0.0 - Mostly clear 10 - - - -
19/09:30am 25.0 S 9 14 1019.1 - 0.0 - Mostly clear 10 - - - -
19/09:00am 24.2 S 10 14 1018.9 R 0.0 Fine Mostly cloudy 20 - - - -
19/08:30am 22.0 ESE 11 14 1019.1 - 0.0 - Mostly clear 10 - - - -
19/08:00am 22.1 S 10 15 1018.8 - 0.0 - Mostly clear 10 - - - -
19/07:30am 18.6 SE 8 10 1018.6 - 0.0 - Mostly clear 10 - - - -
19/07:00am 17.0 CALM 0 3 1018.0 - 0.0 - Mostly clear 10 - - - -
19/06:30am 14.4 SW 1 3 1017.7 - 0.0 - Mostly clear 10 - - - -
19/06:00am 14.2 SSE 2 6 1017.0 - 0.0 - Mostly clear 10 - - - -
19/05:30am 14.7 WNW 1 4 1016.7 - 0.0 - - 10 - - - -
19/05:00am 14.1 WNW 2 5 1016.5 - 0.0 - - 10 - - - -
19/04:30am 13.6 NNW 4 5 1016.2 - 0.0 - - 10 - - - -
19/04:00am 14.8 WNW 1 7 1015.9 - 0.0 - - 10 - - - -
19/03:30am 13.9 W 4 5 1015.8 - 0.0 - - 10 - - - -
19/03:00am 13.7 W 1 4 1015.6 - 0.0 - - 10 - - - -
19/02:30am 14.2 W 4 5 1016.0 - 0.0 - - 10 - - - -
19/02:00am 14.8 CALM 0 0 1016.2 - 0.0 - - 10 - - - -
19/01:30am 15.1 CALM 0 0 1016.4 - 0.0 - - 10 - - - -
19/01:00am 15.8 CALM 0 0 1016.6 - 0.0 - - 10 - - - -
19/12:30am 16.2 CALM 0 0 1016.9 - 0.0 - - 10 - - - -
19/12:00am 16.3 CALM 0 0 1017.1 - 0.0 - - 10 - - - -
 
Date/Time
EST
Temp

°C
Wind Pressure Rain
since 9am
mm
Weather Cloud Vis
km
Sea
Height
m
Swell
Dir
 
Speed
knots
Gust
knots
hPa Trend Height
m
Period
s
Dir
18/11:30pm 16.1 W 1 3 1017.4 - 0.0 - - 10 - - - -
18/11:00pm 17.1 CALM 0 0 1017.4 - 0.0 - - 10 - - - -
18/10:30pm 17.5 WSW 2 4 1017.3 - 0.0 - - 10 - - - -
18/10:00pm 18.1 CALM 0 0 1017.2 - 0.0 - - 10 - - - -
18/09:30pm 18.5 W 4 5 1017.2 - 0.0 - - 10 - - - -
18/09:00pm 19.6 W 5 6 1016.9 - 0.0 - - 10 - - - -
18/08:30pm 20.5 W 5 6 1016.7 - 0.0 - - 10 - - - -
18/08:00pm 20.5 W 5 6 1016.4 - 0.0 - - 10 - - - -
18/07:30pm 21.5 W 5 5 1016.2 - 0.0 - - 10 - - - -
18/07:00pm 22.0 W 4 5 1015.9 - 0.0 - - 10 - - - -
18/06:30pm 22.0 W 4 5 1015.8 - 0.0 - - 10 - - - -

Other Formats:

Comma delimited format used in spreadsheet applications
http://www.bom.gov.au/fwo/IDQ60701/IDQ60701.94287.axf

JavaScript Object Notation format (JSON) in row-major order
http://www.bom.gov.au/fwo/IDQ60701/IDQ60701.94287.json